sensor_id;sensor_type;location;lat;lon;timestamp;P1;durP1;ratioP1;P2;durP2;ratioP2
71810;SDS011;59657;0.000;0.000;2023-03-19T00:01:44;2.13;;;2.03;;
71810;SDS011;59657;0.000;0.000;2023-03-19T00:04:11;2.92;;;2.25;;
71810;SDS011;59657;0.000;0.000;2023-03-19T00:06:38;2.55;;;2.35;;
71810;SDS011;59657;0.000;0.000;2023-03-19T00:09:05;2.45;;;2.25;;
71810;SDS011;59657;0.000;0.000;2023-03-19T00:13:58;2.55;;;2.35;;
71810;SDS011;59657;0.000;0.000;2023-03-19T00:16:25;2.10;;;1.63;;
71810;SDS011;59657;0.000;0.000;2023-03-19T00:21:17;2.13;;;2.03;;
71810;SDS011;59657;0.000;0.000;2023-03-19T00:23:44;2.45;;;2.25;;
71810;SDS011;59657;0.000;0.000;2023-03-19T00:28:37;2.13;;;2.03;;
71810;SDS011;59657;0.000;0.000;2023-03-19T00:33:30;2.80;;;2.25;;
71810;SDS011;59657;0.000;0.000;2023-03-19T00:35:56;1.90;;;1.80;;
71810;SDS011;59657;0.000;0.000;2023-03-19T00:38:24;1.90;;;1.80;;
71810;SDS011;59657;0.000;0.000;2023-03-19T00:43:17;1.83;;;1.73;;
71810;SDS011;59657;0.000;0.000;2023-03-19T00:45:44;2.10;;;1.80;;
71810;SDS011;59657;0.000;0.000;2023-03-19T00:50:36;2.10;;;2.00;;
71810;SDS011;59657;0.000;0.000;2023-03-19T00:53:03;1.75;;;1.65;;
71810;SDS011;59657;0.000;0.000;2023-03-19T00:55:30;2.35;;;2.17;;
71810;SDS011;59657;0.000;0.000;2023-03-19T00:57:56;2.45;;;2.25;;
71810;SDS011;59657;0.000;0.000;2023-03-19T01:02:49;2.05;;;1.95;;
71810;SDS011;59657;0.000;0.000;2023-03-19T01:05:16;1.95;;;1.85;;
71810;SDS011;59657;0.000;0.000;2023-03-19T01:10:08;2.28;;;1.90;;
71810;SDS011;59657;0.000;0.000;2023-03-19T01:12:35;2.10;;;2.00;;
71810;SDS011;59657;0.000;0.000;2023-03-19T01:17:28;2.30;;;2.20;;
71810;SDS011;59657;0.000;0.000;2023-03-19T01:19:55;2.40;;;2.20;;
71810;SDS011;59657;0.000;0.000;2023-03-19T01:22:21;1.77;;;1.67;;
71810;SDS011;59657;0.000;0.000;2023-03-19T01:27:14;2.30;;;2.10;;
71810;SDS011;59657;0.000;0.000;2023-03-19T01:32:07;2.17;;;2.00;;
71810;SDS011;59657;0.000;0.000;2023-03-19T01:34:33;2.40;;;2.20;;
71810;SDS011;59657;0.000;0.000;2023-03-19T01:37:00;2.40;;;2.10;;
71810;SDS011;59657;0.000;0.000;2023-03-19T01:41:53;1.98;;;1.80;;
71810;SDS011;59657;0.000;0.000;2023-03-19T01:44:29;1.70;;;1.60;;
71810;SDS011;59657;0.000;0.000;2023-03-19T01:46:56;1.95;;;1.85;;
71810;SDS011;59657;0.000;0.000;2023-03-19T01:49:23;2.08;;;1.92;;
71810;SDS011;59657;0.000;0.000;2023-03-19T01:51:51;2.53;;;2.33;;
71810;SDS011;59657;0.000;0.000;2023-03-19T01:54:20;2.30;;;2.20;;
71810;SDS011;59657;0.000;0.000;2023-03-19T01:56:48;2.30;;;2.15;;
71810;SDS011;59657;0.000;0.000;2023-03-19T01:59:22;2.53;;;2.30;;
71810;SDS011;59657;0.000;0.000;2023-03-19T02:02:00;2.60;;;2.38;;
71810;SDS011;59657;0.000;0.000;2023-03-19T02:04:27;2.30;;;2.20;;
71810;SDS011;59657;0.000;0.000;2023-03-19T02:06:55;2.20;;;2.00;;
71810;SDS011;59657;0.000;0.000;2023-03-19T02:09:23;2.20;;;2.10;;
71810;SDS011;59657;0.000;0.000;2023-03-19T02:11:49;2.25;;;2.15;;
71810;SDS011;59657;0.000;0.000;2023-03-19T02:14:16;2.10;;;2.00;;
71810;SDS011;59657;0.000;0.000;2023-03-19T02:19:09;2.10;;;2.00;;
71810;SDS011;59657;0.000;0.000;2023-03-19T02:21:37;2.22;;;2.10;;
71810;SDS011;59657;0.000;0.000;2023-03-19T02:26:30;2.13;;;2.03;;
71810;SDS011;59657;0.000;0.000;2023-03-19T02:28:57;2.13;;;2.00;;
71810;SDS011;59657;0.000;0.000;2023-03-19T02:31:24;1.58;;;1.48;;
71810;SDS011;59657;0.000;0.000;2023-03-19T02:33:58;2.80;;;2.60;;
71810;SDS011;59657;0.000;0.000;2023-03-19T02:36:26;2.40;;;2.13;;
71810;SDS011;59657;0.000;0.000;2023-03-19T02:38:54;2.50;;;2.30;;
71810;SDS011;59657;0.000;0.000;2023-03-19T02:41:23;2.55;;;2.35;;
71810;SDS011;59657;0.000;0.000;2023-03-19T02:43:50;2.53;;;2.33;;
71810;SDS011;59657;0.000;0.000;2023-03-19T02:46:17;3.88;;;2.22;;
71810;SDS011;59657;0.000;0.000;2023-03-19T02:51:10;2.45;;;2.25;;
71810;SDS011;59657;0.000;0.000;2023-03-19T02:53:37;2.28;;;2.17;;
71810;SDS011;59657;0.000;0.000;2023-03-19T02:56:04;2.25;;;2.05;;
71810;SDS011;59657;0.000;0.000;2023-03-19T02:58:31;2.58;;;2.38;;
71810;SDS011;59657;0.000;0.000;2023-03-19T03:03:23;2.35;;;2.05;;
71810;SDS011;59657;0.000;0.000;2023-03-19T03:05:50;2.58;;;2.38;;
71810;SDS011;59657;0.000;0.000;2023-03-19T03:10:43;2.33;;;2.13;;
71810;SDS011;59657;0.000;0.000;2023-03-19T03:15:36;2.58;;;2.38;;
71810;SDS011;59657;0.000;0.000;2023-03-19T03:20:28;2.60;;;2.33;;
71810;SDS011;59657;0.000;0.000;2023-03-19T03:22:55;2.60;;;2.40;;
71810;SDS011;59657;0.000;0.000;2023-03-19T03:25:21;2.55;;;2.33;;
71810;SDS011;59657;0.000;0.000;2023-03-19T03:27:48;2.80;;;2.60;;
71810;SDS011;59657;0.000;0.000;2023-03-19T03:30:15;2.97;;;2.60;;
71810;SDS011;59657;0.000;0.000;2023-03-19T03:32:42;2.22;;;1.90;;
71810;SDS011;59657;0.000;0.000;2023-03-19T03:35:08;2.78;;;2.58;;
71810;SDS011;59657;0.000;0.000;2023-03-19T03:37:35;2.40;;;2.20;;
71810;SDS011;59657;0.000;0.000;2023-03-19T03:40:02;2.75;;;2.35;;
71810;SDS011;59657;0.000;0.000;2023-03-19T03:42:32;2.40;;;2.20;;
71810;SDS011;59657;0.000;0.000;2023-03-19T03:45:01;2.75;;;2.40;;
71810;SDS011;59657;0.000;0.000;2023-03-19T03:47:27;2.65;;;2.45;;
71810;SDS011;59657;0.000;0.000;2023-03-19T03:49:54;2.63;;;2.42;;
71810;SDS011;59657;0.000;0.000;2023-03-19T03:52:20;2.83;;;2.63;;
71810;SDS011;59657;0.000;0.000;2023-03-19T03:54:48;3.35;;;2.40;;
71810;SDS011;59657;0.000;0.000;2023-03-19T03:57:14;1.90;;;1.80;;
71810;SDS011;59657;0.000;0.000;2023-03-19T03:59:41;2.63;;;2.42;;
71810;SDS011;59657;0.000;0.000;2023-03-19T04:02:07;2.33;;;2.13;;
71810;SDS011;59657;0.000;0.000;2023-03-19T04:04:34;2.42;;;2.22;;
71810;SDS011;59657;0.000;0.000;2023-03-19T04:07:01;3.20;;;2.53;;
71810;SDS011;59657;0.000;0.000;2023-03-19T04:09:28;2.42;;;2.10;;
71810;SDS011;59657;0.000;0.000;2023-03-19T04:11:55;1.90;;;1.80;;
71810;SDS011;59657;0.000;0.000;2023-03-19T04:16:48;2.30;;;2.10;;
71810;SDS011;59657;0.000;0.000;2023-03-19T04:21:41;1.98;;;1.88;;
71810;SDS011;59657;0.000;0.000;2023-03-19T04:24:09;3.20;;;2.05;;
71810;SDS011;59657;0.000;0.000;2023-03-19T04:26:36;2.15;;;2.05;;
71810;SDS011;59657;0.000;0.000;2023-03-19T04:29:02;2.63;;;2.42;;
71810;SDS011;59657;0.000;0.000;2023-03-19T04:31:29;2.30;;;2.10;;
71810;SDS011;59657;0.000;0.000;2023-03-19T04:36:22;2.10;;;2.00;;
71810;SDS011;59657;0.000;0.000;2023-03-19T04:41:15;2.22;;;2.03;;
71810;SDS011;59657;0.000;0.000;2023-03-19T04:46:08;2.00;;;1.90;;
71810;SDS011;59657;0.000;0.000;2023-03-19T04:48:34;2.15;;;1.95;;
71810;SDS011;59657;0.000;0.000;2023-03-19T04:51:02;1.70;;;1.60;;
71810;SDS011;59657;0.000;0.000;2023-03-19T04:53:28;1.83;;;1.73;;
71810;SDS011;59657;0.000;0.000;2023-03-19T04:58:21;1.98;;;1.88;;
71810;SDS011;59657;0.000;0.000;2023-03-19T05:00:48;1.60;;;1.50;;
71810;SDS011;59657;0.000;0.000;2023-03-19T05:03:14;2.10;;;2.00;;
71810;SDS011;59657;0.000;0.000;2023-03-19T05:05:41;2.20;;;1.85;;
71810;SDS011;59657;0.000;0.000;2023-03-19T05:08:08;2.00;;;1.90;;
71810;SDS011;59657;0.000;0.000;2023-03-19T05:10:35;2.00;;;1.80;;
71810;SDS011;59657;0.000;0.000;2023-03-19T05:13:02;1.90;;;1.80;;
71810;SDS011;59657;0.000;0.000;2023-03-19T05:15:29;2.35;;;1.58;;
71810;SDS011;59657;0.000;0.000;2023-03-19T05:20:22;1.55;;;1.45;;
71810;SDS011;59657;0.000;0.000;2023-03-19T05:25:14;1.60;;;1.55;;
71810;SDS011;59657;0.000;0.000;2023-03-19T05:27:41;1.63;;;1.52;;
71810;SDS011;59657;0.000;0.000;2023-03-19T05:32:33;1.75;;;1.60;;
71810;SDS011;59657;0.000;0.000;2023-03-19T05:35:00;1.60;;;1.50;;
71810;SDS011;59657;0.000;0.000;2023-03-19T05:39:53;1.50;;;1.42;;
71810;SDS011;59657;0.000;0.000;2023-03-19T05:42:19;1.25;;;1.25;;
71810;SDS011;59657;0.000;0.000;2023-03-19T05:44:46;1.50;;;1.40;;
71810;SDS011;59657;0.000;0.000;2023-03-19T05:47:13;1.80;;;1.50;;
71810;SDS011;59657;0.000;0.000;2023-03-19T05:49:40;1.60;;;1.50;;
71810;SDS011;59657;0.000;0.000;2023-03-19T05:52:06;1.60;;;1.50;;
71810;SDS011;59657;0.000;0.000;2023-03-19T05:54:33;1.65;;;1.55;;
71810;SDS011;59657;0.000;0.000;2023-03-19T05:57:00;1.70;;;1.60;;
71810;SDS011;59657;0.000;0.000;2023-03-19T05:59:26;1.30;;;1.20;;
71810;SDS011;59657;0.000;0.000;2023-03-19T06:01:53;1.55;;;1.45;;
71810;SDS011;59657;0.000;0.000;2023-03-19T06:04:20;1.63;;;1.23;;
71810;SDS011;59657;0.000;0.000;2023-03-19T06:09:12;1.35;;;1.35;;
71810;SDS011;59657;0.000;0.000;2023-03-19T06:11:39;2.00;;;1.23;;
71810;SDS011;59657;0.000;0.000;2023-03-19T06:14:07;1.08;;;1.08;;
71810;SDS011;59657;0.000;0.000;2023-03-19T06:18:59;1.75;;;1.65;;
71810;SDS011;59657;0.000;0.000;2023-03-19T06:23:54;1.02;;;1.02;;
71810;SDS011;59657;0.000;0.000;2023-03-19T06:26:21;1.25;;;1.25;;
71810;SDS011;59657;0.000;0.000;2023-03-19T06:28:48;1.08;;;0.95;;
71810;SDS011;59657;0.000;0.000;2023-03-19T06:31:14;1.30;;;1.20;;
71810;SDS011;59657;0.000;0.000;2023-03-19T06:36:07;1.08;;;1.08;;
71810;SDS011;59657;0.000;0.000;2023-03-19T06:38:34;0.90;;;0.90;;
71810;SDS011;59657;0.000;0.000;2023-03-19T06:41:01;1.05;;;1.05;;
71810;SDS011;59657;0.000;0.000;2023-03-19T06:43:27;1.10;;;1.10;;
71810;SDS011;59657;0.000;0.000;2023-03-19T06:45:55;1.15;;;1.10;;
71810;SDS011;59657;0.000;0.000;2023-03-19T06:48:21;1.23;;;1.23;;
71810;SDS011;59657;0.000;0.000;2023-03-19T06:50:48;0.80;;;0.80;;
71810;SDS011;59657;0.000;0.000;2023-03-19T06:53:15;0.75;;;0.75;;
71810;SDS011;59657;0.000;0.000;2023-03-19T06:58:07;0.90;;;0.90;;
71810;SDS011;59657;0.000;0.000;2023-03-19T07:03:01;1.30;;;1.20;;
71810;SDS011;59657;0.000;0.000;2023-03-19T07:07:53;1.10;;;1.10;;
71810;SDS011;59657;0.000;0.000;2023-03-19T07:10:20;1.20;;;1.20;;
71810;SDS011;59657;0.000;0.000;2023-03-19T07:12:47;0.93;;;0.93;;
71810;SDS011;59657;0.000;0.000;2023-03-19T07:15:13;0.82;;;0.82;;
71810;SDS011;59657;0.000;0.000;2023-03-19T07:17:42;1.08;;;0.82;;
71810;SDS011;59657;0.000;0.000;2023-03-19T07:20:11;1.13;;;1.13;;
71810;SDS011;59657;0.000;0.000;2023-03-19T07:22:37;2.03;;;1.58;;
71810;SDS011;59657;0.000;0.000;2023-03-19T07:27:30;0.88;;;0.88;;
71810;SDS011;59657;0.000;0.000;2023-03-19T07:32:22;1.05;;;1.05;;
71810;SDS011;59657;0.000;0.000;2023-03-19T07:34:49;1.23;;;1.23;;
71810;SDS011;59657;0.000;0.000;2023-03-19T07:37:16;0.90;;;0.90;;
71810;SDS011;59657;0.000;0.000;2023-03-19T07:39:42;1.10;;;1.10;;
71810;SDS011;59657;0.000;0.000;2023-03-19T07:42:10;1.00;;;0.90;;
71810;SDS011;59657;0.000;0.000;2023-03-19T07:47:02;1.10;;;1.10;;
71810;SDS011;59657;0.000;0.000;2023-03-19T07:49:30;1.33;;;1.30;;
71810;SDS011;59657;0.000;0.000;2023-03-19T07:54:22;1.65;;;1.55;;
71810;SDS011;59657;0.000;0.000;2023-03-19T07:56:49;1.30;;;1.00;;
71810;SDS011;59657;0.000;0.000;2023-03-19T08:01:42;0.90;;;0.90;;
71810;SDS011;59657;0.000;0.000;2023-03-19T08:06:34;1.20;;;1.20;;
71810;SDS011;59657;0.000;0.000;2023-03-19T08:09:02;1.10;;;1.00;;
71810;SDS011;59657;0.000;0.000;2023-03-19T08:11:29;1.20;;;1.10;;
71810;SDS011;59657;0.000;0.000;2023-03-19T08:16:21;0.85;;;0.85;;
71810;SDS011;59657;0.000;0.000;2023-03-19T08:21:14;1.10;;;1.10;;
71810;SDS011;59657;0.000;0.000;2023-03-19T08:26:07;0.50;;;0.47;;
71810;SDS011;59657;0.000;0.000;2023-03-19T08:33:36;1.35;;;1.25;;
71810;SDS011;59657;0.000;0.000;2023-03-19T08:36:05;0.80;;;0.80;;
71810;SDS011;59657;0.000;0.000;2023-03-19T08:38:32;1.10;;;1.10;;
71810;SDS011;59657;0.000;0.000;2023-03-19T08:43:27;0.95;;;0.95;;
71810;SDS011;59657;0.000;0.000;2023-03-19T08:45:53;1.30;;;1.30;;
71810;SDS011;59657;0.000;0.000;2023-03-19T08:50:51;1.10;;;1.10;;
71810;SDS011;59657;0.000;0.000;2023-03-19T08:53:18;1.35;;;1.25;;
71810;SDS011;59657;0.000;0.000;2023-03-19T08:58:10;1.58;;;1.17;;
71810;SDS011;59657;0.000;0.000;2023-03-19T09:03:03;1.10;;;1.10;;
71810;SDS011;59657;0.000;0.000;2023-03-19T09:05:31;0.90;;;0.90;;
71810;SDS011;59657;0.000;0.000;2023-03-19T09:10:23;1.10;;;1.00;;
71810;SDS011;59657;0.000;0.000;2023-03-19T09:12:50;1.25;;;1.25;;
71810;SDS011;59657;0.000;0.000;2023-03-19T09:17:43;0.63;;;0.63;;
71810;SDS011;59657;0.000;0.000;2023-03-19T09:20:10;1.20;;;1.10;;
71810;SDS011;59657;0.000;0.000;2023-03-19T09:25:03;1.02;;;0.98;;
71810;SDS011;59657;0.000;0.000;2023-03-19T09:27:29;1.90;;;1.20;;
71810;SDS011;59657;0.000;0.000;2023-03-19T09:29:56;1.00;;;1.00;;
71810;SDS011;59657;0.000;0.000;2023-03-19T09:34:49;1.08;;;1.08;;
71810;SDS011;59657;0.000;0.000;2023-03-19T09:39:42;1.00;;;1.00;;
71810;SDS011;59657;0.000;0.000;2023-03-19T09:44:35;1.10;;;1.10;;
71810;SDS011;59657;0.000;0.000;2023-03-19T09:47:08;1.00;;;1.00;;
71810;SDS011;59657;0.000;0.000;2023-03-19T09:49:38;0.90;;;0.90;;
71810;SDS011;59657;0.000;0.000;2023-03-19T09:52:19;2.13;;;1.13;;
71810;SDS011;59657;0.000;0.000;2023-03-19T09:54:49;1.13;;;1.00;;
71810;SDS011;59657;0.000;0.000;2023-03-19T09:57:17;0.80;;;0.80;;
71810;SDS011;59657;0.000;0.000;2023-03-19T09:59:44;0.90;;;0.90;;
71810;SDS011;59657;0.000;0.000;2023-03-19T10:07:32;1.05;;;0.90;;
71810;SDS011;59657;0.000;0.000;2023-03-19T10:10:46;1.10;;;1.10;;
71810;SDS011;59657;0.000;0.000;2023-03-19T10:12:56;0.93;;;0.93;;
71810;SDS011;59657;0.000;0.000;2023-03-19T10:15:28;1.10;;;1.10;;
71810;SDS011;59657;0.000;0.000;2023-03-19T10:17:57;0.93;;;0.93;;
71810;SDS011;59657;0.000;0.000;2023-03-19T10:25:38;1.10;;;1.02;;
71810;SDS011;59657;0.000;0.000;2023-03-19T10:28:10;1.40;;;1.30;;
71810;SDS011;59657;0.000;0.000;2023-03-19T10:30:40;1.08;;;1.08;;
71810;SDS011;59657;0.000;0.000;2023-03-19T10:35:43;1.55;;;0.90;;
71810;SDS011;59657;0.000;0.000;2023-03-19T10:43:23;1.13;;;1.02;;
71810;SDS011;59657;0.000;0.000;2023-03-19T10:45:50;1.00;;;1.00;;
71810;SDS011;59657;0.000;0.000;2023-03-19T10:48:18;1.20;;;1.20;;
71810;SDS011;59657;0.000;0.000;2023-03-19T10:50:48;0.93;;;0.93;;
71810;SDS011;59657;0.000;0.000;2023-03-19T10:56:03;1.05;;;1.00;;
71810;SDS011;59657;0.000;0.000;2023-03-19T10:58:31;0.57;;;0.57;;
71810;SDS011;59657;0.000;0.000;2023-03-19T11:01:01;1.15;;;1.15;;
71810;SDS011;59657;0.000;0.000;2023-03-19T11:03:33;0.93;;;0.93;;
71810;SDS011;59657;0.000;0.000;2023-03-19T11:08:36;1.00;;;1.00;;
71810;SDS011;59657;0.000;0.000;2023-03-19T11:11:03;0.90;;;0.90;;
71810;SDS011;59657;0.000;0.000;2023-03-19T11:15:56;0.88;;;0.88;;
71810;SDS011;59657;0.000;0.000;2023-03-19T11:18:28;1.02;;;0.93;;
71810;SDS011;59657;0.000;0.000;2023-03-19T11:20:57;0.90;;;0.90;;
71810;SDS011;59657;0.000;0.000;2023-03-19T11:23:27;1.08;;;1.08;;
71810;SDS011;59657;0.000;0.000;2023-03-19T11:25:58;0.90;;;0.90;;
71810;SDS011;59657;0.000;0.000;2023-03-19T11:28:26;1.52;;;1.52;;
71810;SDS011;59657;0.000;0.000;2023-03-19T11:36:22;0.93;;;0.93;;
71810;SDS011;59657;0.000;0.000;2023-03-19T11:38:56;0.90;;;0.90;;
71810;SDS011;59657;0.000;0.000;2023-03-19T11:41:41;1.63;;;1.10;;
71810;SDS011;59657;0.000;0.000;2023-03-19T11:49:29;0.82;;;0.82;;
71810;SDS011;59657;0.000;0.000;2023-03-19T11:52:01;0.88;;;0.88;;
71810;SDS011;59657;0.000;0.000;2023-03-19T11:54:35;1.02;;;1.02;;
71810;SDS011;59657;0.000;0.000;2023-03-19T11:57:07;0.90;;;0.90;;
71810;SDS011;59657;0.000;0.000;2023-03-19T12:02:18;1.05;;;1.05;;
71810;SDS011;59657;0.000;0.000;2023-03-19T12:07:30;1.27;;;0.90;;
71810;SDS011;59657;0.000;0.000;2023-03-19T12:10:02;0.90;;;0.90;;
71810;SDS011;59657;0.000;0.000;2023-03-19T12:12:45;1.02;;;1.02;;
71810;SDS011;59657;0.000;0.000;2023-03-19T12:15:17;0.93;;;0.93;;
71810;SDS011;59657;0.000;0.000;2023-03-19T12:17:54;0.88;;;0.88;;
71810;SDS011;59657;0.000;0.000;2023-03-19T12:20:29;0.82;;;0.82;;
71810;SDS011;59657;0.000;0.000;2023-03-19T12:25:48;0.88;;;0.88;;
71810;SDS011;59657;0.000;0.000;2023-03-19T12:28:20;0.98;;;0.95;;
71810;SDS011;59657;0.000;0.000;2023-03-19T12:30:56;0.77;;;0.77;;
71810;SDS011;59657;0.000;0.000;2023-03-19T12:36:21;0.80;;;0.80;;
71810;SDS011;59657;0.000;0.000;2023-03-19T12:38:50;1.15;;;1.15;;
71810;SDS011;59657;0.000;0.000;2023-03-19T12:41:21;0.90;;;0.90;;
71810;SDS011;59657;0.000;0.000;2023-03-19T12:43:54;1.35;;;1.35;;
71810;SDS011;59657;0.000;0.000;2023-03-19T12:46:26;0.88;;;0.88;;
71810;SDS011;59657;0.000;0.000;2023-03-19T12:49:04;0.85;;;0.85;;
71810;SDS011;59657;0.000;0.000;2023-03-19T12:51:33;1.00;;;1.00;;
71810;SDS011;59657;0.000;0.000;2023-03-19T12:56:38;1.77;;;0.80;;
71810;SDS011;59657;0.000;0.000;2023-03-19T12:59:12;0.85;;;0.85;;
71810;SDS011;59657;0.000;0.000;2023-03-19T13:01:43;0.90;;;0.90;;
71810;SDS011;59657;0.000;0.000;2023-03-19T13:04:13;0.60;;;0.60;;
71810;SDS011;59657;0.000;0.000;2023-03-19T13:06:44;0.95;;;0.95;;
71810;SDS011;59657;0.000;0.000;2023-03-19T13:11:52;0.70;;;0.70;;
71810;SDS011;59657;0.000;0.000;2023-03-19T13:17:10;0.95;;;0.95;;
71810;SDS011;59657;0.000;0.000;2023-03-19T13:19:45;0.85;;;0.85;;
71810;SDS011;59657;0.000;0.000;2023-03-19T13:22:16;1.02;;;1.02;;
71810;SDS011;59657;0.000;0.000;2023-03-19T13:24:44;0.88;;;0.88;;
71810;SDS011;59657;0.000;0.000;2023-03-19T13:27:18;0.75;;;0.75;;
71810;SDS011;59657;0.000;0.000;2023-03-19T13:29:57;0.90;;;0.90;;
71810;SDS011;59657;0.000;0.000;2023-03-19T13:32:33;0.85;;;0.85;;
71810;SDS011;59657;0.000;0.000;2023-03-19T13:37:48;0.82;;;0.82;;
71810;SDS011;59657;0.000;0.000;2023-03-19T13:42:55;0.77;;;0.77;;
71810;SDS011;59657;0.000;0.000;2023-03-19T13:48:21;0.70;;;0.70;;
71810;SDS011;59657;0.000;0.000;2023-03-19T13:51:48;0.80;;;0.80;;
71810;SDS011;59657;0.000;0.000;2023-03-19T13:53:33;0.93;;;0.93;;
71810;SDS011;59657;0.000;0.000;2023-03-19T13:56:02;0.90;;;0.90;;
71810;SDS011;59657;0.000;0.000;2023-03-19T13:58:29;0.90;;;0.90;;
71810;SDS011;59657;0.000;0.000;2023-03-19T14:04:06;0.75;;;0.50;;
71810;SDS011;59657;0.000;0.000;2023-03-19T14:06:42;1.02;;;1.02;;
71810;SDS011;59657;0.000;0.000;2023-03-19T14:11:46;0.75;;;0.75;;
71810;SDS011;59657;0.000;0.000;2023-03-19T14:14:13;0.73;;;0.73;;
71810;SDS011;59657;0.000;0.000;2023-03-19T14:16:41;1.00;;;1.00;;
71810;SDS011;59657;0.000;0.000;2023-03-19T14:19:09;0.93;;;0.93;;
71810;SDS011;59657;0.000;0.000;2023-03-19T14:21:41;0.77;;;0.77;;
71810;SDS011;59657;0.000;0.000;2023-03-19T14:26:44;1.00;;;1.00;;
71810;SDS011;59657;0.000;0.000;2023-03-19T14:31:41;1.00;;;1.00;;
71810;SDS011;59657;0.000;0.000;2023-03-19T14:36:37;0.73;;;0.73;;
71810;SDS011;59657;0.000;0.000;2023-03-19T14:39:08;0.80;;;0.80;;
71810;SDS011;59657;0.000;0.000;2023-03-19T14:41:39;0.80;;;0.80;;
71810;SDS011;59657;0.000;0.000;2023-03-19T14:47:02;0.82;;;0.82;;
71810;SDS011;59657;0.000;0.000;2023-03-19T14:52:09;0.88;;;0.88;;
71810;SDS011;59657;0.000;0.000;2023-03-19T14:54:39;0.88;;;0.88;;
71810;SDS011;59657;0.000;0.000;2023-03-19T14:57:16;0.75;;;0.75;;
71810;SDS011;59657;0.000;0.000;2023-03-19T14:59:43;0.90;;;0.90;;
71810;SDS011;59657;0.000;0.000;2023-03-19T15:04:36;0.93;;;0.93;;
71810;SDS011;59657;0.000;0.000;2023-03-19T15:07:02;0.95;;;0.85;;
71810;SDS011;59657;0.000;0.000;2023-03-19T15:09:30;1.00;;;1.00;;
71810;SDS011;59657;0.000;0.000;2023-03-19T15:17:14;0.60;;;0.60;;
71810;SDS011;59657;0.000;0.000;2023-03-19T15:19:43;0.90;;;0.90;;
71810;SDS011;59657;0.000;0.000;2023-03-19T15:22:12;0.70;;;0.70;;
71810;SDS011;59657;0.000;0.000;2023-03-19T15:24:39;1.00;;;1.00;;
71810;SDS011;59657;0.000;0.000;2023-03-19T15:27:16;1.00;;;1.00;;
71810;SDS011;59657;0.000;0.000;2023-03-19T15:29:43;0.95;;;0.95;;
71810;SDS011;59657;0.000;0.000;2023-03-19T15:34:36;0.80;;;0.80;;
71810;SDS011;59657;0.000;0.000;2023-03-19T15:37:04;0.70;;;0.70;;
71810;SDS011;59657;0.000;0.000;2023-03-19T15:39:33;0.95;;;0.95;;
71810;SDS011;59657;0.000;0.000;2023-03-19T15:42:00;0.93;;;0.93;;
71810;SDS011;59657;0.000;0.000;2023-03-19T15:44:31;0.80;;;0.80;;
71810;SDS011;59657;0.000;0.000;2023-03-19T15:46:58;1.23;;;0.85;;
71810;SDS011;59657;0.000;0.000;2023-03-19T15:49:27;0.80;;;0.80;;
71810;SDS011;59657;0.000;0.000;2023-03-19T15:51:57;1.00;;;1.00;;
71810;SDS011;59657;0.000;0.000;2023-03-19T15:54:26;0.68;;;0.68;;
71810;SDS011;59657;0.000;0.000;2023-03-19T15:56:52;0.90;;;0.90;;
71810;SDS011;59657;0.000;0.000;2023-03-19T15:59:20;0.57;;;0.57;;
71810;SDS011;59657;0.000;0.000;2023-03-19T16:01:51;0.63;;;0.63;;
71810;SDS011;59657;0.000;0.000;2023-03-19T16:04:22;0.80;;;0.80;;
71810;SDS011;59657;0.000;0.000;2023-03-19T16:06:51;0.90;;;0.90;;
71810;SDS011;59657;0.000;0.000;2023-03-19T16:11:44;0.90;;;0.90;;
71810;SDS011;59657;0.000;0.000;2023-03-19T16:19:34;0.88;;;0.88;;
71810;SDS011;59657;0.000;0.000;2023-03-19T16:22:03;0.90;;;0.90;;
71810;SDS011;59657;0.000;0.000;2023-03-19T16:24:36;0.80;;;0.80;;
71810;SDS011;59657;0.000;0.000;2023-03-19T16:27:06;1.02;;;1.02;;
71810;SDS011;59657;0.000;0.000;2023-03-19T16:29:35;0.73;;;0.73;;
71810;SDS011;59657;0.000;0.000;2023-03-19T16:32:06;0.80;;;0.80;;
71810;SDS011;59657;0.000;0.000;2023-03-19T16:34:53;0.80;;;0.80;;
71810;SDS011;59657;0.000;0.000;2023-03-19T16:40:00;0.70;;;0.70;;
71810;SDS011;59657;0.000;0.000;2023-03-19T16:42:28;0.88;;;0.88;;
71810;SDS011;59657;0.000;0.000;2023-03-19T16:44:55;0.75;;;0.75;;
71810;SDS011;59657;0.000;0.000;2023-03-19T16:49:48;0.77;;;0.77;;
71810;SDS011;59657;0.000;0.000;2023-03-19T16:52:17;0.70;;;0.70;;
71810;SDS011;59657;0.000;0.000;2023-03-19T16:54:45;1.00;;;1.00;;
71810;SDS011;59657;0.000;0.000;2023-03-19T16:57:12;0.90;;;0.90;;
71810;SDS011;59657;0.000;0.000;2023-03-19T16:59:40;0.80;;;0.80;;
71810;SDS011;59657;0.000;0.000;2023-03-19T17:02:09;0.90;;;0.90;;
71810;SDS011;59657;0.000;0.000;2023-03-19T17:04:36;0.68;;;0.68;;
71810;SDS011;59657;0.000;0.000;2023-03-19T17:07:02;1.17;;;1.08;;
71810;SDS011;59657;0.000;0.000;2023-03-19T17:11:55;0.80;;;0.80;;
71810;SDS011;59657;0.000;0.000;2023-03-19T17:16:47;0.80;;;0.80;;
71810;SDS011;59657;0.000;0.000;2023-03-19T17:19:17;0.82;;;0.82;;
71810;SDS011;59657;0.000;0.000;2023-03-19T17:21:44;0.73;;;0.73;;
71810;SDS011;59657;0.000;0.000;2023-03-19T17:26:48;0.70;;;0.70;;
71810;SDS011;59657;0.000;0.000;2023-03-19T17:29:14;1.02;;;1.02;;
71810;SDS011;59657;0.000;0.000;2023-03-19T17:34:11;0.75;;;0.75;;
71810;SDS011;59657;0.000;0.000;2023-03-19T17:36:38;0.90;;;0.90;;
71810;SDS011;59657;0.000;0.000;2023-03-19T17:39:05;0.80;;;0.80;;
71810;SDS011;59657;0.000;0.000;2023-03-19T17:41:32;0.85;;;0.85;;
71810;SDS011;59657;0.000;0.000;2023-03-19T17:43:59;0.55;;;0.55;;
71810;SDS011;59657;0.000;0.000;2023-03-19T17:46:27;0.73;;;0.73;;
71810;SDS011;59657;0.000;0.000;2023-03-19T17:48:54;0.75;;;0.75;;
71810;SDS011;59657;0.000;0.000;2023-03-19T17:51:22;0.65;;;0.65;;
71810;SDS011;59657;0.000;0.000;2023-03-19T17:53:50;0.90;;;0.90;;
71810;SDS011;59657;0.000;0.000;2023-03-19T17:56:18;0.80;;;0.80;;
71810;SDS011;59657;0.000;0.000;2023-03-19T17:58:45;0.70;;;0.70;;
71810;SDS011;59657;0.000;0.000;2023-03-19T18:01:12;0.80;;;0.80;;
71810;SDS011;59657;0.000;0.000;2023-03-19T18:03:39;0.80;;;0.80;;
71810;SDS011;59657;0.000;0.000;2023-03-19T18:08:33;0.75;;;0.75;;
71810;SDS011;59657;0.000;0.000;2023-03-19T18:10:59;0.70;;;0.70;;
71810;SDS011;59657;0.000;0.000;2023-03-19T18:15:52;0.68;;;0.68;;
71810;SDS011;59657;0.000;0.000;2023-03-19T18:18:19;0.57;;;0.57;;
71810;SDS011;59657;0.000;0.000;2023-03-19T18:20:46;0.80;;;0.80;;
71810;SDS011;59657;0.000;0.000;2023-03-19T18:23:13;0.80;;;0.80;;
71810;SDS011;59657;0.000;0.000;2023-03-19T18:25:40;0.77;;;0.77;;
71810;SDS011;59657;0.000;0.000;2023-03-19T18:28:07;0.65;;;0.65;;
71810;SDS011;59657;0.000;0.000;2023-03-19T18:33:00;0.82;;;0.82;;
71810;SDS011;59657;0.000;0.000;2023-03-19T18:35:29;0.80;;;0.80;;
71810;SDS011;59657;0.000;0.000;2023-03-19T18:37:56;0.57;;;0.57;;
71810;SDS011;59657;0.000;0.000;2023-03-19T18:40:24;0.65;;;0.65;;
71810;SDS011;59657;0.000;0.000;2023-03-19T18:42:51;0.68;;;0.68;;
71810;SDS011;59657;0.000;0.000;2023-03-19T18:45:18;0.70;;;0.70;;
71810;SDS011;59657;0.000;0.000;2023-03-19T18:47:45;0.60;;;0.60;;
71810;SDS011;59657;0.000;0.000;2023-03-19T18:50:21;0.63;;;0.63;;
71810;SDS011;59657;0.000;0.000;2023-03-19T18:52:49;0.68;;;0.68;;
71810;SDS011;59657;0.000;0.000;2023-03-19T18:55:15;0.60;;;0.60;;
71810;SDS011;59657;0.000;0.000;2023-03-19T18:57:46;0.40;;;0.40;;
71810;SDS011;59657;0.000;0.000;2023-03-19T19:00:16;0.40;;;0.40;;
71810;SDS011;59657;0.000;0.000;2023-03-19T19:02:43;0.70;;;0.70;;
71810;SDS011;59657;0.000;0.000;2023-03-19T19:05:14;0.70;;;0.70;;
71810;SDS011;59657;0.000;0.000;2023-03-19T19:07:41;0.70;;;0.70;;
71810;SDS011;59657;0.000;0.000;2023-03-19T19:10:08;0.70;;;0.70;;
71810;SDS011;59657;0.000;0.000;2023-03-19T19:12:35;0.95;;;0.95;;
71810;SDS011;59657;0.000;0.000;2023-03-19T19:15:03;0.75;;;0.75;;
71810;SDS011;59657;0.000;0.000;2023-03-19T19:17:30;0.60;;;0.60;;
71810;SDS011;59657;0.000;0.000;2023-03-19T19:19:57;0.65;;;0.65;;
71810;SDS011;59657;0.000;0.000;2023-03-19T19:24:50;0.60;;;0.60;;
71810;SDS011;59657;0.000;0.000;2023-03-19T19:29:43;0.52;;;0.52;;
71810;SDS011;59657;0.000;0.000;2023-03-19T19:32:14;0.60;;;0.60;;
71810;SDS011;59657;0.000;0.000;2023-03-19T19:34:43;0.68;;;0.68;;